Terminal Aerodrome Forecast
Issued by NWS Twin Cities, MN

Home | Current Version | Previous Version | Text Only | Print | Product List | Glossary On
Versions: 1 2 3 4 5 6 7 8 9 10 11 12 13 14 15 16 17 18 19 20
932
FTUS43 KMPX 251526 AAA
TAFSTC
TAF AMD
KSTC 251526Z 2515/2612 28013G20KT P6SM SCT025
     FM251700 29015G22KT P6SM BKN025 BKN040
     FM251900 29015G22KT P6SM BKN040
     FM260200 30004KT P6SM SKC
     FM261100 VRB02KT 2SM BR SKC=

USA.gov is the U.S. government's official web portal to all federal, state and local government web resources and services.